Allgood, Alabama
Current Conditions -  °F | °C
As of 4:15 AM on Monday 26 Jan 2015 (Local Time) from KGAD Reporting Station
Overcast Overcast  
Wind Chill:   Ceiling: 1800
Heat Index:   Visibility: 10mi
Dew Point:   Wind: 13mph
Humidity: 76%   Direction: 300°WNW
Pressure: 29.83"   Gusts: 18mph
Location:  33.91°N, 86.51°W
Report Text: KGAD 261015Z 30011G16KT 10SM OVC018 06/02 A2983 RMK AO1
Loading
Personal Weather Stations






























Interactive Weather Map New forecast layout! Learn more

10-Day Weather Forecast

Advertisements
Track Severe Weather on mobile